sensor_id;sensor_type;location;lat;lon;timestamp;pressure;altitude;pressure_sealevel;temperature;humidity
36062;BME280;22123;52.412;20.970;2023-04-21T00:01:20;101142.13;;;6.22;100.00
36062;BME280;22123;52.412;20.970;2023-04-21T00:03:46;101133.03;;;6.14;100.00
36062;BME280;22123;52.412;20.970;2023-04-21T00:06:11;101167.88;;;6.35;100.00
36062;BME280;22123;52.412;20.970;2023-04-21T00:08:37;101178.69;;;6.33;100.00
36062;BME280;22123;52.412;20.970;2023-04-21T00:11:03;101181.63;;;6.30;100.00
36062;BME280;22123;52.412;20.970;2023-04-21T00:13:29;101161.09;;;6.19;100.00
36062;BME280;22123;52.412;20.970;2023-04-21T00:15:55;101142.53;;;6.06;100.00
36062;BME280;22123;52.412;20.970;2023-04-21T00:18:21;101132.84;;;6.05;100.00
36062;BME280;22123;52.412;20.970;2023-04-21T00:20:47;101131.00;;;6.06;100.00
36062;BME280;22123;52.412;20.970;2023-04-21T00:23:13;101158.44;;;6.19;100.00
36062;BME280;22123;52.412;20.970;2023-04-21T00:25:38;101145.44;;;6.15;100.00
36062;BME280;22123;52.412;20.970;2023-04-21T00:28:04;101157.19;;;6.23;100.00
36062;BME280;22123;52.412;20.970;2023-04-21T00:30:30;101158.44;;;6.19;100.00
36062;BME280;22123;52.412;20.970;2023-04-21T00:32:56;101129.03;;;5.97;100.00
36062;BME280;22123;52.412;20.970;2023-04-21T00:35:22;101149.25;;;6.01;100.00
36062;BME280;22123;52.412;20.970;2023-04-21T00:37:48;101116.09;;;5.81;100.00
36062;BME280;22123;52.412;20.970;2023-04-21T00:40:14;101151.31;;;5.97;100.00
36062;BME280;22123;52.412;20.970;2023-04-21T00:42:40;101133.09;;;5.91;100.00
36062;BME280;22123;52.412;20.970;2023-04-21T00:45:06;101128.84;;;5.88;100.00
36062;BME280;22123;52.412;20.970;2023-04-21T00:47:32;101127.28;;;5.86;100.00
36062;BME280;22123;52.412;20.970;2023-04-21T00:49:58;101106.78;;;5.75;100.00
36062;BME280;22123;52.412;20.970;2023-04-21T00:52:25;101141.69;;;5.95;100.00
36062;BME280;22123;52.412;20.970;2023-04-21T00:54:52;101152.66;;;5.91;100.00
36062;BME280;22123;52.412;20.970;2023-04-21T00:57:19;101162.25;;;5.94;100.00
36062;BME280;22123;52.412;20.970;2023-04-21T00:59:45;101134.47;;;5.74;100.00
36062;BME280;22123;52.412;20.970;2023-04-21T01:02:11;101135.44;;;5.73;100.00
36062;BME280;22123;52.412;20.970;2023-04-21T01:04:37;101142.22;;;5.77;100.00
36062;BME280;22123;52.412;20.970;2023-04-21T01:07:03;101136.66;;;5.69;100.00
36062;BME280;22123;52.412;20.970;2023-04-21T01:09:29;101114.69;;;5.54;100.00
36062;BME280;22123;52.412;20.970;2023-04-21T01:12:01;101153.03;;;5.75;100.00
36062;BME280;22123;52.412;20.970;2023-04-21T01:14:28;101143.94;;;5.67;100.00
36062;BME280;22123;52.412;20.970;2023-04-21T01:16:54;101142.50;;;5.63;100.00
36062;BME280;22123;52.412;20.970;2023-04-21T01:19:19;101150.00;;;5.69;100.00
36062;BME280;22123;52.412;20.970;2023-04-21T01:21:45;101151.00;;;5.68;100.00
36062;BME280;22123;52.412;20.970;2023-04-21T01:24:11;101131.56;;;5.54;100.00
36062;BME280;22123;52.412;20.970;2023-04-21T01:26:37;101134.72;;;5.48;100.00
36062;BME280;22123;52.412;20.970;2023-04-21T01:29:03;101118.59;;;5.38;100.00
36062;BME280;22123;52.412;20.970;2023-04-21T01:31:29;101134.03;;;5.46;100.00
36062;BME280;22123;52.412;20.970;2023-04-21T01:33:55;101107.44;;;5.33;100.00
36062;BME280;22123;52.412;20.970;2023-04-21T01:36:21;101111.44;;;5.39;100.00
36062;BME280;22123;52.412;20.970;2023-04-21T01:38:47;101126.25;;;5.43;100.00
36062;BME280;22123;52.412;20.970;2023-04-21T01:41:13;101119.09;;;5.32;100.00
36062;BME280;22123;52.412;20.970;2023-04-21T01:43:39;101149.28;;;5.55;100.00
36062;BME280;22123;52.412;20.970;2023-04-21T01:46:05;101136.06;;;5.43;100.00
36062;BME280;22123;52.412;20.970;2023-04-21T01:48:31;101133.91;;;5.36;100.00
36062;BME280;22123;52.412;20.970;2023-04-21T01:50:57;101108.16;;;5.24;100.00
36062;BME280;22123;52.412;20.970;2023-04-21T01:53:23;101118.84;;;5.24;100.00
36062;BME280;22123;52.412;20.970;2023-04-21T01:55:48;101131.84;;;5.29;100.00
36062;BME280;22123;52.412;20.970;2023-04-21T01:58:14;101154.75;;;5.43;100.00
36062;BME280;22123;52.412;20.970;2023-04-21T02:00:40;101150.50;;;5.40;100.00
36062;BME280;22123;52.412;20.970;2023-04-21T02:03:06;101104.31;;;5.05;100.00
36062;BME280;22123;52.412;20.970;2023-04-21T02:05:32;101116.91;;;5.15;100.00
36062;BME280;22123;52.412;20.970;2023-04-21T02:07:58;101106.22;;;5.03;100.00
36062;BME280;22123;52.412;20.970;2023-04-21T02:10:24;101153.09;;;5.30;100.00
36062;BME280;22123;52.412;20.970;2023-04-21T02:12:50;101127.72;;;5.13;100.00
36062;BME280;22123;52.412;20.970;2023-04-21T02:15:16;101122.97;;;5.05;100.00
36062;BME280;22123;52.412;20.970;2023-04-21T02:17:41;101126.38;;;5.08;100.00
36062;BME280;22123;52.412;20.970;2023-04-21T02:20:08;101156.47;;;5.21;100.00
36062;BME280;22123;52.412;20.970;2023-04-21T02:22:34;101131.94;;;5.04;100.00
36062;BME280;22123;52.412;20.970;2023-04-21T02:24:59;101128.44;;;5.04;100.00
36062;BME280;22123;52.412;20.970;2023-04-21T02:27:25;101108.28;;;4.88;100.00
36062;BME280;22123;52.412;20.970;2023-04-21T02:29:51;101150.25;;;5.09;100.00
36062;BME280;22123;52.412;20.970;2023-04-21T02:32:17;101121.63;;;4.88;100.00
36062;BME280;22123;52.412;20.970;2023-04-21T02:34:43;101120.41;;;4.81;100.00
36062;BME280;22123;52.412;20.970;2023-04-21T02:37:09;101132.53;;;4.85;100.00
36062;BME280;22123;52.412;20.970;2023-04-21T02:39:35;101126.81;;;4.79;100.00
36062;BME280;22123;52.412;20.970;2023-04-21T02:42:01;101126.06;;;4.65;100.00
36062;BME280;22123;52.412;20.970;2023-04-21T02:44:27;101100.44;;;4.51;100.00
36062;BME280;22123;52.412;20.970;2023-04-21T02:46:52;101152.03;;;4.75;100.00
36062;BME280;22123;52.412;20.970;2023-04-21T02:49:18;101138.53;;;4.65;100.00
36062;BME280;22123;52.412;20.970;2023-04-21T02:51:44;101137.22;;;4.59;100.00
36062;BME280;22123;52.412;20.970;2023-04-21T02:54:10;101109.16;;;4.42;100.00
36062;BME280;22123;52.412;20.970;2023-04-21T02:56:36;101126.75;;;4.45;100.00
36062;BME280;22123;52.412;20.970;2023-04-21T02:59:02;101112.28;;;4.36;100.00
36062;BME280;22123;52.412;20.970;2023-04-21T03:01:28;101096.59;;;4.20;100.00
36062;BME280;22123;52.412;20.970;2023-04-21T03:03:54;101109.56;;;4.25;100.00
36062;BME280;22123;52.412;20.970;2023-04-21T03:06:19;101104.31;;;4.12;100.00
36062;BME280;22123;52.412;20.970;2023-04-21T03:08:45;101124.56;;;4.14;100.00
36062;BME280;22123;52.412;20.970;2023-04-21T03:11:11;101105.97;;;4.02;100.00
36062;BME280;22123;52.412;20.970;2023-04-21T03:13:37;101072.75;;;3.70;100.00
36062;BME280;22123;52.412;20.970;2023-04-21T03:16:03;101103.59;;;3.86;100.00
36062;BME280;22123;52.412;20.970;2023-04-21T03:18:29;101130.00;;;3.89;100.00
36062;BME280;22123;52.412;20.970;2023-04-21T03:20:58;101106.19;;;3.74;100.00
36062;BME280;22123;52.412;20.970;2023-04-21T03:23:24;101126.56;;;3.87;100.00
36062;BME280;22123;52.412;20.970;2023-04-21T03:25:50;101099.59;;;3.67;100.00
36062;BME280;22123;52.412;20.970;2023-04-21T03:28:16;101134.78;;;3.83;100.00
36062;BME280;22123;52.412;20.970;2023-04-21T03:30:42;101111.09;;;3.68;100.00
36062;BME280;22123;52.412;20.970;2023-04-21T03:33:08;101121.63;;;3.69;100.00
36062;BME280;22123;52.412;20.970;2023-04-21T03:35:34;101112.91;;;3.67;100.00
36062;BME280;22123;52.412;20.970;2023-04-21T03:38:00;101113.66;;;3.69;100.00
36062;BME280;22123;52.412;20.970;2023-04-21T03:40:25;101154.16;;;3.98;100.00
36062;BME280;22123;52.412;20.970;2023-04-21T03:42:51;101079.72;;;3.60;100.00
36062;BME280;22123;52.412;20.970;2023-04-21T03:45:17;101111.81;;;3.82;100.00
36062;BME280;22123;52.412;20.970;2023-04-21T03:47:43;101111.81;;;3.82;100.00
36062;BME280;22123;52.412;20.970;2023-04-21T03:50:09;101160.03;;;4.15;100.00
36062;BME280;22123;52.412;20.970;2023-04-21T03:52:35;101135.88;;;4.05;100.00
36062;BME280;22123;52.412;20.970;2023-04-21T03:55:01;101135.53;;;4.10;100.00
36062;BME280;22123;52.412;20.970;2023-04-21T03:57:27;101126.09;;;4.06;100.00
36062;BME280;22123;52.412;20.970;2023-04-21T03:59:52;101116.88;;;4.10;100.00
36062;BME280;22123;52.412;20.970;2023-04-21T04:02:18;101139.63;;;4.27;100.00
36062;BME280;22123;52.412;20.970;2023-04-21T04:04:44;101140.84;;;4.34;100.00
36062;BME280;22123;52.412;20.970;2023-04-21T04:07:10;101119.94;;;4.41;100.00
36062;BME280;22123;52.412;20.970;2023-04-21T04:09:36;101160.03;;;4.75;100.00
36062;BME280;22123;52.412;20.970;2023-04-21T04:12:02;101130.53;;;4.65;100.00
36062;BME280;22123;52.412;20.970;2023-04-21T04:14:28;101131.75;;;4.72;100.00
36062;BME280;22123;52.412;20.970;2023-04-21T04:16:54;101143.69;;;4.91;100.00
36062;BME280;22123;52.412;20.970;2023-04-21T04:19:20;101164.69;;;5.07;100.00
36062;BME280;22123;52.412;20.970;2023-04-21T04:21:46;101157.31;;;5.10;100.00
36062;BME280;22123;52.412;20.970;2023-04-21T04:24:12;101169.44;;;5.26;100.00
36062;BME280;22123;52.412;20.970;2023-04-21T04:26:38;101148.56;;;5.19;100.00
36062;BME280;22123;52.412;20.970;2023-04-21T04:29:03;101136.94;;;5.20;100.00
36062;BME280;22123;52.412;20.970;2023-04-21T04:31:29;101137.31;;;5.27;100.00
36062;BME280;22123;52.412;20.970;2023-04-21T04:33:56;101157.19;;;5.46;100.00
36062;BME280;22123;52.412;20.970;2023-04-21T04:36:22;101153.19;;;5.51;100.00
36062;BME280;22123;52.412;20.970;2023-04-21T04:38:48;101122.72;;;5.43;100.00
36062;BME280;22123;52.412;20.970;2023-04-21T04:41:14;101159.72;;;5.70;100.00
36062;BME280;22123;52.412;20.970;2023-04-21T04:43:40;101142.50;;;5.63;100.00
36062;BME280;22123;52.412;20.970;2023-04-21T04:46:06;101179.25;;;5.93;100.00
36062;BME280;22123;52.412;20.970;2023-04-21T04:48:32;101176.09;;;5.99;100.00
36062;BME280;22123;52.412;20.970;2023-04-21T04:50:58;101175.00;;;6.02;100.00
36062;BME280;22123;52.412;20.970;2023-04-21T04:53:24;101158.72;;;6.05;100.00
36062;BME280;22123;52.412;20.970;2023-04-21T04:55:49;101171.47;;;6.13;100.00
36062;BME280;22123;52.412;20.970;2023-04-21T04:58:15;101148.03;;;6.05;100.00
36062;BME280;22123;52.412;20.970;2023-04-21T05:00:41;101156.59;;;6.20;100.00
36062;BME280;22123;52.412;20.970;2023-04-21T05:03:07;101147.22;;;6.25;100.00
36062;BME280;22123;52.412;20.970;2023-04-21T05:05:33;101148.41;;;6.33;100.00
36062;BME280;22123;52.412;20.970;2023-04-21T05:07:59;101154.81;;;6.41;100.00
36062;BME280;22123;52.412;20.970;2023-04-21T05:10:25;101166.66;;;6.60;100.00
36062;BME280;22123;52.412;20.970;2023-04-21T05:12:51;101154.38;;;6.57;100.00
36062;BME280;22123;52.412;20.970;2023-04-21T05:15:16;101138.31;;;6.57;100.00
36062;BME280;22123;52.412;20.970;2023-04-21T05:17:42;101186.59;;;6.88;100.00
36062;BME280;22123;52.412;20.970;2023-04-21T05:20:08;101168.25;;;6.84;100.00
36062;BME280;22123;52.412;20.970;2023-04-21T05:22:37;101149.03;;;6.78;100.00
36062;BME280;22123;52.412;20.970;2023-04-21T05:25:04;101156.13;;;6.89;100.00
36062;BME280;22123;52.412;20.970;2023-04-21T05:27:30;101158.59;;;7.02;100.00
36062;BME280;22123;52.412;20.970;2023-04-21T05:29:56;101144.66;;;6.99;100.00
36062;BME280;22123;52.412;20.970;2023-04-21T05:32:22;101167.31;;;7.16;100.00
36062;BME280;22123;52.412;20.970;2023-04-21T05:34:48;101140.66;;;7.14;100.00
36062;BME280;22123;52.412;20.970;2023-04-21T05:37:13;101156.88;;;7.22;100.00
36062;BME280;22123;52.412;20.970;2023-04-21T05:39:39;101177.03;;;7.47;100.00
36062;BME280;22123;52.412;20.970;2023-04-21T05:42:08;101144.38;;;7.32;100.00
36062;BME280;22123;52.412;20.970;2023-04-21T05:44:34;101136.06;;;7.36;100.00
36062;BME280;22123;52.412;20.970;2023-04-21T05:47:00;101147.72;;;7.46;100.00
36062;BME280;22123;52.412;20.970;2023-04-21T05:49:26;101161.56;;;7.61;100.00
36062;BME280;22123;52.412;20.970;2023-04-21T05:51:52;101157.91;;;7.62;100.00
36062;BME280;22123;52.412;20.970;2023-04-21T05:54:18;101171.78;;;7.77;100.00
36062;BME280;22123;52.412;20.970;2023-04-21T05:56:44;101180.50;;;7.79;100.00
36062;BME280;22123;52.412;20.970;2023-04-21T05:59:09;101159.34;;;7.76;100.00
36062;BME280;22123;52.412;20.970;2023-04-21T06:01:36;101156.25;;;7.80;100.00
36062;BME280;22123;52.412;20.970;2023-04-21T06:04:01;101167.00;;;7.90;100.00
36062;BME280;22123;52.412;20.970;2023-04-21T06:06:27;101158.28;;;7.88;100.00
36062;BME280;22123;52.412;20.970;2023-04-21T06:08:53;101175.22;;;7.98;100.00
36062;BME280;22123;52.412;20.970;2023-04-21T06:11:19;101152.06;;;7.97;100.00
36062;BME280;22123;52.412;20.970;2023-04-21T06:13:45;101178.06;;;8.16;100.00
36062;BME280;22123;52.412;20.970;2023-04-21T06:16:11;101145.31;;;8.13;100.00
36062;BME280;22123;52.412;20.970;2023-04-21T06:18:37;101158.31;;;8.27;100.00
36062;BME280;22123;52.412;20.970;2023-04-21T06:21:03;101151.94;;;8.28;100.00
36062;BME280;22123;52.412;20.970;2023-04-21T06:23:29;101187.31;;;8.53;100.00
36062;BME280;22123;52.412;20.970;2023-04-21T06:26:02;101179.38;;;8.61;100.00
36062;BME280;22123;52.412;20.970;2023-04-21T06:28:28;101183.63;;;8.64;100.00
36062;BME280;22123;52.412;20.970;2023-04-21T06:30:54;101151.13;;;8.57;100.00
36062;BME280;22123;52.412;20.970;2023-04-21T06:33:20;101151.41;;;8.74;100.00
36062;BME280;22123;52.412;20.970;2023-04-21T06:35:46;101129.06;;;8.83;100.00
36062;BME280;22123;52.412;20.970;2023-04-21T06:38:12;101171.75;;;9.33;100.00
36062;BME280;22123;52.412;20.970;2023-04-21T06:40:38;101131.91;;;9.29;100.00
36062;BME280;22123;52.412;20.970;2023-04-21T06:43:03;101171.13;;;9.49;100.00
36062;BME280;22123;52.412;20.970;2023-04-21T06:45:29;101145.84;;;9.42;100.00
36062;BME280;22123;52.412;20.970;2023-04-21T06:47:55;101133.69;;;9.38;100.00
36062;BME280;22123;52.412;20.970;2023-04-21T06:50:21;101152.97;;;9.61;100.00
36062;BME280;22123;52.412;20.970;2023-04-21T06:52:47;101162.84;;;9.70;100.00
36062;BME280;22123;52.412;20.970;2023-04-21T06:55:13;101139.22;;;9.64;100.00
36062;BME280;22123;52.412;20.970;2023-04-21T06:57:39;101130.72;;;9.69;100.00
36062;BME280;22123;52.412;20.970;2023-04-21T07:00:05;101126.03;;;9.71;100.00
36062;BME280;22123;52.412;20.970;2023-04-21T07:02:31;101125.75;;;9.92;100.00
36062;BME280;22123;52.412;20.970;2023-04-21T07:04:57;101166.66;;;10.41;100.00
36062;BME280;22123;52.412;20.970;2023-04-21T07:07:23;101148.09;;;10.56;100.00
36062;BME280;22123;52.412;20.970;2023-04-21T07:09:49;101169.84;;;10.81;100.00
36062;BME280;22123;52.412;20.970;2023-04-21T07:12:15;101130.66;;;10.87;100.00
36062;BME280;22123;52.412;20.970;2023-04-21T07:14:40;101137.91;;;11.12;100.00
36062;BME280;22123;52.412;20.970;2023-04-21T07:17:06;101140.81;;;11.54;100.00
36062;BME280;22123;52.412;20.970;2023-04-21T07:19:32;101140.84;;;11.70;100.00
36062;BME280;22123;52.412;20.970;2023-04-21T07:21:58;101129.75;;;11.81;100.00
36062;BME280;22123;52.412;20.970;2023-04-21T07:24:24;101130.19;;;11.95;100.00
36062;BME280;22123;52.412;20.970;2023-04-21T07:26:50;101126.50;;;12.04;100.00
36062;BME280;22123;52.412;20.970;2023-04-21T07:29:16;101151.16;;;12.42;100.00
36062;BME280;22123;52.412;20.970;2023-04-21T07:31:42;101128.06;;;12.48;100.00
36062;BME280;22123;52.412;20.970;2023-04-21T07:34:07;101137.84;;;12.82;100.00
36062;BME280;22123;52.412;20.970;2023-04-21T07:36:33;101131.34;;;13.08;100.00
36062;BME280;22123;52.412;20.970;2023-04-21T07:38:59;101144.28;;;13.45;100.00
36062;BME280;22123;52.412;20.970;2023-04-21T07:41:25;101149.28;;;13.73;100.00
36062;BME280;22123;52.412;20.970;2023-04-21T07:43:51;101097.94;;;13.88;100.00
36062;BME280;22123;52.412;20.970;2023-04-21T07:46:17;101102.00;;;14.15;100.00
36062;BME280;22123;52.412;20.970;2023-04-21T07:48:43;101102.09;;;14.22;100.00
36062;BME280;22123;52.412;20.970;2023-04-21T07:51:09;101129.56;;;14.65;100.00
36062;BME280;22123;52.412;20.970;2023-04-21T07:53:34;101144.38;;;14.92;100.00
36062;BME280;22123;52.412;20.970;2023-04-21T07:56:00;101107.00;;;15.18;100.00
36062;BME280;22123;52.412;20.970;2023-04-21T07:58:26;101136.16;;;16.12;100.00
36062;BME280;22123;52.412;20.970;2023-04-21T08:00:52;101111.09;;;17.10;100.00
36062;BME280;22123;52.412;20.970;2023-04-21T08:03:17;101126.50;;;19.08;100.00
36062;BME280;22123;52.412;20.970;2023-04-21T08:05:43;101103.44;;;21.52;94.77
36062;BME280;22123;52.412;20.970;2023-04-21T08:08:09;101102.69;;;24.12;61.65
36062;BME280;22123;52.412;20.970;2023-04-21T08:10:35;101101.50;;;26.53;35.96
36062;BME280;22123;52.412;20.970;2023-04-21T08:13:01;101092.59;;;28.00;32.23
36062;BME280;22123;52.412;20.970;2023-04-21T08:15:27;101091.16;;;29.76;28.10
36062;BME280;22123;52.412;20.970;2023-04-21T08:17:53;101088.63;;;31.18;25.71
36062;BME280;22123;52.412;20.970;2023-04-21T08:20:19;101107.69;;;32.11;24.68
36062;BME280;22123;52.412;20.970;2023-04-21T08:22:44;101083.16;;;32.32;23.95
36062;BME280;22123;52.412;20.970;2023-04-21T08:25:10;101079.25;;;33.08;22.22
36062;BME280;22123;52.412;20.970;2023-04-21T08:27:37;101100.00;;;33.85;22.46
36062;BME280;22123;52.412;20.970;2023-04-21T08:30:03;101091.34;;;34.32;21.53
36062;BME280;22123;52.412;20.970;2023-04-21T08:32:29;101094.09;;;34.09;21.89
36062;BME280;22123;52.412;20.970;2023-04-21T08:34:55;101101.47;;;32.99;21.79
36062;BME280;22123;52.412;20.970;2023-04-21T08:37:21;101103.03;;;32.26;22.31
36062;BME280;22123;52.412;20.970;2023-04-21T08:39:48;101105.34;;;31.37;23.55
36062;BME280;22123;52.412;20.970;2023-04-21T08:42:17;101095.66;;;30.51;22.53
36062;BME280;22123;52.412;20.970;2023-04-21T08:44:44;101097.44;;;30.42;24.03
36062;BME280;22123;52.412;20.970;2023-04-21T08:47:10;101092.03;;;30.16;23.89
36062;BME280;22123;52.412;20.970;2023-04-21T08:49:37;101098.66;;;29.10;25.88
36062;BME280;22123;52.412;20.970;2023-04-21T08:52:04;101108.97;;;28.33;26.45
36062;BME280;22123;52.412;20.970;2023-04-21T08:54:31;101057.16;;;27.18;26.86
36062;BME280;22123;52.412;20.970;2023-04-21T08:56:57;101046.50;;;26.47;27.85
36062;BME280;22123;52.412;20.970;2023-04-21T08:59:23;101069.78;;;25.96;28.45
36062;BME280;22123;52.412;20.970;2023-04-21T09:02:11;101076.91;;;26.14;28.53
36062;BME280;22123;52.412;20.970;2023-04-21T09:04:50;101092.19;;;26.00;30.92
36062;BME280;22123;52.412;20.970;2023-04-21T09:07:33;101083.91;;;25.11;32.84
36062;BME280;22123;52.412;20.970;2023-04-21T09:09:59;101077.06;;;24.24;32.61
36062;BME280;22123;52.412;20.970;2023-04-21T09:12:26;101083.06;;;23.63;33.40
36062;BME280;22123;52.412;20.970;2023-04-21T09:14:52;101100.59;;;22.98;34.55
36062;BME280;22123;52.412;20.970;2023-04-21T09:17:21;101092.06;;;21.98;33.50
36062;BME280;22123;52.412;20.970;2023-04-21T09:19:47;101084.63;;;21.19;37.83
36062;BME280;22123;52.412;20.970;2023-04-21T09:22:17;101073.13;;;20.66;39.23
36062;BME280;22123;52.412;20.970;2023-04-21T09:24:56;101091.44;;;20.41;40.27
36062;BME280;22123;52.412;20.970;2023-04-21T09:27:22;101063.59;;;20.25;40.39
36062;BME280;22123;52.412;20.970;2023-04-21T09:29:48;101061.69;;;20.26;41.72
36062;BME280;22123;52.412;20.970;2023-04-21T09:32:18;101047.97;;;20.32;37.66
36062;BME280;22123;52.412;20.970;2023-04-21T09:34:44;101070.81;;;20.70;38.74
36062;BME280;22123;52.412;20.970;2023-04-21T09:37:11;101045.44;;;20.56;38.20
36062;BME280;22123;52.412;20.970;2023-04-21T09:39:37;101078.63;;;20.35;38.90
36062;BME280;22123;52.412;20.970;2023-04-21T09:42:03;101056.94;;;20.40;42.52
36062;BME280;22123;52.412;20.970;2023-04-21T09:44:29;101057.94;;;20.20;42.28
36062;BME280;22123;52.412;20.970;2023-04-21T09:47:00;101072.59;;;20.83;41.40
36062;BME280;22123;52.412;20.970;2023-04-21T09:49:28;101049.28;;;21.17;41.03
36062;BME280;22123;52.412;20.970;2023-04-21T09:51:59;101049.34;;;22.20;40.28
36062;BME280;22123;52.412;20.970;2023-04-21T09:54:30;101053.59;;;22.70;36.77
36062;BME280;22123;52.412;20.970;2023-04-21T09:57:01;101046.06;;;22.66;37.48
36062;BME280;22123;52.412;20.970;2023-04-21T09:59:33;101034.13;;;22.72;35.94
36062;BME280;22123;52.412;20.970;2023-04-21T10:02:03;101051.44;;;22.84;35.58
36062;BME280;22123;52.412;20.970;2023-04-21T10:04:30;101026.69;;;23.08;38.68
36062;BME280;22123;52.412;20.970;2023-04-21T10:07:01;101051.91;;;23.86;38.76
36062;BME280;22123;52.412;20.970;2023-04-21T10:09:34;101029.41;;;23.89;32.89
36062;BME280;22123;52.412;20.970;2023-04-21T10:12:02;101038.03;;;24.44;33.50
36062;BME280;22123;52.412;20.970;2023-04-21T10:14:28;101044.78;;;25.09;33.79
36062;BME280;22123;52.412;20.970;2023-04-21T10:17:13;101037.03;;;26.00;30.98
36062;BME280;22123;52.412;20.970;2023-04-21T10:19:47;101031.78;;;26.68;31.97
36062;BME280;22123;52.412;20.970;2023-04-21T10:22:14;100990.19;;;27.64;29.54
36062;BME280;22123;52.412;20.970;2023-04-21T10:24:54;101005.88;;;28.92;27.56
36062;BME280;22123;52.412;20.970;2023-04-21T10:27:34;101019.94;;;29.66;25.64
36062;BME280;22123;52.412;20.970;2023-04-21T10:30:00;101007.66;;;30.17;24.65
36062;BME280;22123;52.412;20.970;2023-04-21T10:32:40;100997.34;;;31.01;25.40
36062;BME280;22123;52.412;20.970;2023-04-21T10:35:14;101013.13;;;31.87;23.14
36062;BME280;22123;52.412;20.970;2023-04-21T10:37:41;101013.69;;;32.22;22.18
36062;BME280;22123;52.412;20.970;2023-04-21T10:42:55;100988.75;;;33.78;22.02
36062;BME280;22123;52.412;20.970;2023-04-21T10:45:24;100988.13;;;34.27;21.17
36062;BME280;22123;52.412;20.970;2023-04-21T10:47:51;100976.53;;;34.82;20.91
36062;BME280;22123;52.412;20.970;2023-04-21T10:50:20;101006.03;;;35.24;21.27
36062;BME280;22123;52.412;20.970;2023-04-21T10:55:17;100982.69;;;34.62;21.14
36062;BME280;22123;52.412;20.970;2023-04-21T10:57:43;100989.81;;;33.32;21.85
36062;BME280;22123;52.412;20.970;2023-04-21T11:00:11;100974.34;;;32.56;22.82
36062;BME280;22123;52.412;20.970;2023-04-21T11:02:39;100978.41;;;32.17;22.80
36062;BME280;22123;52.412;20.970;2023-04-21T11:05:05;100975.41;;;31.62;22.38
36062;BME280;22123;52.412;20.970;2023-04-21T11:07:31;100977.50;;;31.32;23.27
36062;BME280;22123;52.412;20.970;2023-04-21T11:09:59;100959.00;;;30.98;22.36
36062;BME280;22123;52.412;20.970;2023-04-21T11:12:27;100949.81;;;30.78;24.97
36062;BME280;22123;52.412;20.970;2023-04-21T11:14:53;100963.38;;;30.02;22.26
36062;BME280;22123;52.412;20.970;2023-04-21T11:17:19;100945.00;;;29.32;23.01
36062;BME280;22123;52.412;20.970;2023-04-21T11:19:46;100935.59;;;29.28;23.30
36062;BME280;22123;52.412;20.970;2023-04-21T11:22:12;100938.78;;;29.90;25.57
36062;BME280;22123;52.412;20.970;2023-04-21T11:24:43;100923.81;;;29.86;23.76
36062;BME280;22123;52.412;20.970;2023-04-21T11:27:09;100937.31;;;29.19;25.22
36062;BME280;22123;52.412;20.970;2023-04-21T11:29:35;100932.00;;;28.57;25.07
36062;BME280;22123;52.412;20.970;2023-04-21T11:32:01;100938.19;;;28.33;24.59
36062;BME280;22123;52.412;20.970;2023-04-21T11:34:26;100925.19;;;28.18;23.54
36062;BME280;22123;52.412;20.970;2023-04-21T11:36:52;100930.19;;;28.16;25.22
36062;BME280;22123;52.412;20.970;2023-04-21T11:39:20;100950.06;;;27.56;24.94
36062;BME280;22123;52.412;20.970;2023-04-21T11:41:50;100949.66;;;27.17;25.99
36062;BME280;22123;52.412;20.970;2023-04-21T11:44:40;100931.81;;;27.50;25.50
36062;BME280;22123;52.412;20.970;2023-04-21T11:47:18;100917.34;;;27.22;25.35
36062;BME280;22123;52.412;20.970;2023-04-21T11:52:27;100912.06;;;26.42;27.44
36062;BME280;22123;52.412;20.970;2023-04-21T11:54:58;100935.44;;;26.29;26.10
36062;BME280;22123;52.412;20.970;2023-04-21T11:57:26;100921.59;;;26.24;29.68
36062;BME280;22123;52.412;20.970;2023-04-21T11:59:52;100923.00;;;26.22;27.31
36062;BME280;22123;52.412;20.970;2023-04-21T12:02:28;100914.28;;;26.02;26.35
36062;BME280;22123;52.412;20.970;2023-04-21T12:05:02;100923.53;;;25.54;28.62
36062;BME280;22123;52.412;20.970;2023-04-21T12:07:31;100911.00;;;25.18;29.30
36062;BME280;22123;52.412;20.970;2023-04-21T12:09:57;100901.91;;;24.91;32.14
36062;BME280;22123;52.412;20.970;2023-04-21T12:12:23;100912.69;;;24.14;32.07
36062;BME280;22123;52.412;20.970;2023-04-21T12:14:50;100914.31;;;23.93;30.89
36062;BME280;22123;52.412;20.970;2023-04-21T12:17:16;100904.94;;;24.11;33.22
36062;BME280;22123;52.412;20.970;2023-04-21T12:19:42;100893.38;;;24.09;35.29
36062;BME280;22123;52.412;20.970;2023-04-21T12:22:13;100891.88;;;24.01;35.01
36062;BME280;22123;52.412;20.970;2023-04-21T12:24:40;100906.50;;;24.24;35.07
36062;BME280;22123;52.412;20.970;2023-04-21T12:27:07;100899.38;;;24.06;34.61
36062;BME280;22123;52.412;20.970;2023-04-21T12:29:33;100898.59;;;23.76;34.25
36062;BME280;22123;52.412;20.970;2023-04-21T12:31:59;100888.91;;;23.40;34.00
36062;BME280;22123;52.412;20.970;2023-04-21T12:34:25;100898.47;;;23.08;31.84
36062;BME280;22123;52.412;20.970;2023-04-21T12:36:51;100882.22;;;22.90;34.19
36062;BME280;22123;52.412;20.970;2023-04-21T12:39:17;100896.56;;;22.80;35.00
36062;BME280;22123;52.412;20.970;2023-04-21T12:41:43;100882.75;;;22.63;36.01
36062;BME280;22123;52.412;20.970;2023-04-21T12:44:08;100894.84;;;22.27;31.79